Time;durP1;ratioP1;P1;durP2;ratioP2;P2;SDS_P1;SDS_P2;PMS_P1;PMS_P2;Temp;Humidity;BMP_temperature;BMP_pressure;BME280_temperature;BME280_humidity;BME280_pressure;Samples;Min_cycle;Max_cycle;Signal;HPM_P1;HPM_P2
2023/04/04 00:00:43;;;;;;;3.50;2.13;;;;;;;;;;4972131;28;20563;-67
2023/04/04 00:03:09;;;;;;;3.90;1.83;;;;;;;;;;4970270;28;20180;-68
2023/04/04 00:05:34;;;;;;;4.27;2.03;;;;;;;;;;4970553;28;20204;-68
2023/04/04 00:08:00;;;;;;;1.73;1.63;;;;;;;;;;4971656;28;20176;-68
2023/04/04 00:10:26;;;;;;;4.47;2.30;;;;;;;;;;4964064;28;20200;-68
2023/04/04 00:12:51;;;;;;;4.07;2.47;;;;;;;;;;4967066;28;20263;-68
2023/04/04 00:15:17;;;;;;;6.50;3.13;;;;;;;;;;4971121;28;20508;-68
2023/04/04 00:17:42;;;;;;;5.67;1.83;;;;;;;;;;4972179;28;20211;-68
2023/04/04 00:20:08;;;;;;;3.37;2.00;;;;;;;;;;4966543;28;20212;-68
2023/04/04 00:22:33;;;;;;;2.53;1.80;;;;;;;;;;4968198;28;20184;-68
2023/04/04 00:24:58;;;;;;;2.30;1.50;;;;;;;;;;4966527;28;20292;-68
2023/04/04 00:27:23;;;;;;;3.43;2.40;;;;;;;;;;4970185;28;20176;-68
2023/04/04 00:29:48;;;;;;;2.60;1.80;;;;;;;;;;4963110;28;20252;-68
2023/04/04 00:32:15;;;;;;;6.50;2.50;;;;;;;;;;4962931;28;20232;-68
2023/04/04 00:34:40;;;;;;;3.57;2.20;;;;;;;;;;4965514;28;20200;-68
2023/04/04 00:37:06;;;;;;;3.03;2.00;;;;;;;;;;4971849;28;20176;-67
2023/04/04 00:39:32;;;;;;;4.70;2.43;;;;;;;;;;4970932;28;20195;-68
2023/04/04 00:41:57;;;;;;;7.50;2.80;;;;;;;;;;4971185;28;20255;-68
2023/04/04 00:44:22;;;;;;;6.07;2.50;;;;;;;;;;4981389;23;20298;-74
2023/04/04 00:46:48;;;;;;;5.13;2.33;;;;;;;;;;4981470;28;20638;-75
2023/04/04 00:49:13;;;;;;;3.93;2.27;;;;;;;;;;4984939;28;20175;-73
2023/04/04 00:51:38;;;;;;;4.70;1.80;;;;;;;;;;4982470;28;20654;-76
2023/04/04 00:54:03;;;;;;;6.67;2.17;;;;;;;;;;4989352;28;20745;-74
2023/04/04 00:56:29;;;;;;;3.10;2.23;;;;;;;;;;4974068;28;20176;-74
2023/04/04 00:58:55;;;;;;;3.37;2.20;;;;;;;;;;4978968;28;20262;-75
2023/04/04 01:01:21;;;;;;;4.93;2.20;;;;;;;;;;4974955;28;20192;-76
2023/04/04 01:03:46;;;;;;;5.23;2.53;;;;;;;;;;4975530;28;20651;-76
2023/04/04 01:06:12;;;;;;;5.90;2.50;;;;;;;;;;4973699;28;20208;-75
2023/04/04 01:08:38;;;;;;;5.30;2.60;;;;;;;;;;4974328;28;20188;-75
2023/04/04 01:11:04;;;;;;;2.77;2.07;;;;;;;;;;4966539;28;20177;-76
2023/04/04 01:13:30;;;;;;;3.60;1.93;;;;;;;;;;4975084;28;20280;-75
2023/04/04 01:15:55;;;;;;;4.87;2.70;;;;;;;;;;4965236;28;20240;-75
2023/04/04 01:18:21;;;;;;;3.00;2.13;;;;;;;;;;4978311;28;20210;-75
2023/04/04 01:20:53;;;;;;;3.90;2.23;;;;;;;;;;4968458;28;20219;-75
2023/04/04 01:23:20;;;;;;;6.93;2.60;;;;;;;;;;4983079;28;20824;-75
2023/04/04 01:25:47;;;;;;;6.37;2.40;;;;;;;;;;4975157;28;20200;-75
2023/04/04 01:28:12;;;;;;;3.37;2.23;;;;;;;;;;4978794;28;20672;-75
2023/04/04 01:30:38;;;;;;;4.50;2.30;;;;;;;;;;4969096;28;20182;-75
2023/04/04 01:33:19;;;;;;;3.13;2.40;;;;;;;;;;4969328;28;20247;-75
2023/04/04 01:35:57;;;;;;;3.30;2.10;;;;;;;;;;4968884;28;20663;-75
2023/04/04 01:38:28;;;;;;;7.93;2.70;;;;;;;;;;4976893;28;20180;-75
2023/04/04 01:41:04;;;;;;;4.63;2.20;;;;;;;;;;4985641;28;20208;-74
2023/04/04 01:43:29;;;;;;;3.03;2.20;;;;;;;;;;4995386;28;20234;-74
2023/04/04 01:45:55;;;;;;;3.73;2.40;;;;;;;;;;4984132;28;20208;-75
2023/04/04 01:48:21;;;;;;;4.87;2.40;;;;;;;;;;4972374;28;20177;-76
2023/04/04 01:50:46;;;;;;;3.33;2.43;;;;;;;;;;4978457;28;20187;-75
2023/04/04 01:53:11;;;;;;;4.43;3.03;;;;;;;;;;4972542;28;20188;-75
2023/04/04 01:55:37;;;;;;;3.80;2.40;;;;;;;;;;4977067;28;20196;-75
2023/04/04 01:58:02;;;;;;;2.97;2.40;;;;;;;;;;4973209;28;20179;-75
2023/04/04 02:00:27;;;;;;;3.03;2.73;;;;;;;;;;4967777;28;20200;-75
2023/04/04 02:02:52;;;;;;;8.03;3.20;;;;;;;;;;4982414;28;20204;-75
2023/04/04 02:05:18;;;;;;;5.90;2.53;;;;;;;;;;4968267;28;20245;-75
2023/04/04 02:07:47;;;;;;;5.57;2.83;;;;;;;;;;4974030;28;20177;-74
2023/04/04 02:10:13;;;;;;;6.23;2.90;;;;;;;;;;4979551;28;20191;-74
2023/04/04 02:12:38;;;;;;;5.73;2.50;;;;;;;;;;4971299;28;20643;-75
2023/04/04 02:15:05;;;;;;;6.33;2.70;;;;;;;;;;4975831;28;20700;-75
2023/04/04 02:17:30;;;;;;;7.13;2.87;;;;;;;;;;4973062;28;20187;-74
2023/04/04 02:19:55;;;;;;;4.07;3.03;;;;;;;;;;4972813;28;20196;-74
2023/04/04 02:22:20;;;;;;;3.23;2.43;;;;;;;;;;4961243;28;20193;-75
2023/04/04 02:24:45;;;;;;;3.53;2.30;;;;;;;;;;4968106;28;20278;-75
2023/04/04 02:27:11;;;;;;;4.03;2.30;;;;;;;;;;4976513;28;20164;-75
2023/04/04 02:29:36;;;;;;;3.53;2.47;;;;;;;;;;4975313;28;20187;-75
2023/04/04 02:32:01;;;;;;;3.63;2.43;;;;;;;;;;4985567;28;20173;-75
2023/04/04 02:34:27;;;;;;;4.97;2.53;;;;;;;;;;4973088;28;20320;-75
2023/04/04 02:36:52;;;;;;;4.57;2.33;;;;;;;;;;4979827;28;20194;-75
2023/04/04 02:39:18;;;;;;;3.00;2.47;;;;;;;;;;4978777;28;20254;-75
2023/04/04 02:41:44;;;;;;;5.57;2.50;;;;;;;;;;4976487;28;20180;-75
2023/04/04 02:44:09;;;;;;;5.57;2.50;;;;;;;;;;4968853;28;20180;-75
2023/04/04 02:46:34;;;;;;;4.87;2.57;;;;;;;;;;4980079;28;20204;-74
2023/04/04 02:49:00;;;;;;;4.87;2.97;;;;;;;;;;4981035;28;20181;-75
2023/04/04 02:51:26;;;;;;;6.20;2.83;;;;;;;;;;4970432;28;20184;-76
2023/04/04 02:53:51;;;;;;;3.00;2.67;;;;;;;;;;4973145;28;20172;-76
2023/04/04 02:56:16;;;;;;;3.93;2.87;;;;;;;;;;4979493;28;20184;-76
2023/04/04 02:58:41;;;;;;;5.60;3.70;;;;;;;;;;4971092;28;20199;-75
2023/04/04 03:01:07;;;;;;;8.03;3.53;;;;;;;;;;4973205;28;20219;-77
2023/04/04 03:03:32;;;;;;;4.33;3.10;;;;;;;;;;4970328;28;20172;-75
2023/04/04 03:05:57;;;;;;;6.00;3.20;;;;;;;;;;4972503;28;20279;-74
2023/04/04 03:08:23;;;;;;;3.50;3.00;;;;;;;;;;4972218;28;20292;-74
2023/04/04 03:10:48;;;;;;;6.53;3.03;;;;;;;;;;4970630;28;20559;-74
2023/04/04 03:13:13;;;;;;;4.17;2.90;;;;;;;;;;4972284;28;20176;-74
2023/04/04 03:15:39;;;;;;;5.53;3.30;;;;;;;;;;4971708;28;21112;-74
2023/04/04 03:18:05;;;;;;;5.57;3.43;;;;;;;;;;4977050;28;20177;-75
2023/04/04 03:20:30;;;;;;;4.13;3.00;;;;;;;;;;4971348;28;20214;-75
2023/04/04 03:22:56;;;;;;;5.47;2.57;;;;;;;;;;4974069;28;20184;-75
2023/04/04 03:25:21;;;;;;;4.67;3.67;;;;;;;;;;4968564;28;20201;-75
2023/04/04 03:27:47;;;;;;;5.03;3.60;;;;;;;;;;4976068;28;20188;-76
2023/04/04 03:30:12;;;;;;;4.53;2.73;;;;;;;;;;4973506;28;20581;-76
2023/04/04 03:32:38;;;;;;;4.13;3.13;;;;;;;;;;4972278;28;20251;-75
2023/04/04 03:35:03;;;;;;;4.13;3.33;;;;;;;;;;4978842;28;20199;-75
2023/04/04 03:37:29;;;;;;;5.50;3.00;;;;;;;;;;4958950;28;20247;-76
2023/04/04 03:39:55;;;;;;;4.23;2.83;;;;;;;;;;4972256;28;20204;-76
2023/04/04 03:42:20;;;;;;;6.33;3.70;;;;;;;;;;4982348;28;20177;-74
2023/04/04 03:44:45;;;;;;;5.87;3.47;;;;;;;;;;4971666;28;20220;-76
2023/04/04 03:47:11;;;;;;;3.60;2.90;;;;;;;;;;4975497;28;20532;-76
2023/04/04 03:49:36;;;;;;;7.37;3.63;;;;;;;;;;4969652;28;20180;-75
2023/04/04 03:52:02;;;;;;;5.33;3.47;;;;;;;;;;4979976;28;20182;-76
2023/04/04 03:54:27;;;;;;;5.57;3.20;;;;;;;;;;4973354;28;20202;-75
2023/04/04 03:56:53;;;;;;;4.93;3.10;;;;;;;;;;4968410;28;20192;-75
2023/04/04 03:59:18;;;;;;;5.83;3.70;;;;;;;;;;4971542;28;20186;-75
2023/04/04 04:01:43;;;;;;;6.57;3.70;;;;;;;;;;4972593;28;20172;-74
2023/04/04 04:04:08;;;;;;;4.77;3.40;;;;;;;;;;4970029;28;20180;-75
2023/04/04 04:06:34;;;;;;;6.07;3.27;;;;;;;;;;4969550;28;20259;-75
2023/04/04 04:09:00;;;;;;;5.90;3.67;;;;;;;;;;4966180;28;20200;-74
2023/04/04 04:11:25;;;;;;;7.03;3.90;;;;;;;;;;4973213;28;20203;-76
2023/04/04 04:13:50;;;;;;;6.07;3.80;;;;;;;;;;4971084;28;20287;-75
2023/04/04 04:16:16;;;;;;;5.73;3.60;;;;;;;;;;4968688;28;20666;-76
2023/04/04 04:18:41;;;;;;;5.20;3.40;;;;;;;;;;4977974;28;20189;-75
2023/04/04 04:21:06;;;;;;;6.87;3.27;;;;;;;;;;4974841;28;20215;-75
2023/04/04 04:23:31;;;;;;;5.50;4.17;;;;;;;;;;4967499;28;20200;-75
2023/04/04 04:25:57;;;;;;;5.27;3.50;;;;;;;;;;4973649;28;20215;-74
2023/04/04 04:28:25;;;;;;;5.37;3.20;;;;;;;;;;4977420;28;20647;-75
2023/04/04 04:30:50;;;;;;;7.13;3.73;;;;;;;;;;4977835;28;20263;-75
2023/04/04 04:33:15;;;;;;;6.90;3.53;;;;;;;;;;4973616;28;20252;-75
2023/04/04 04:35:40;;;;;;;6.37;3.57;;;;;;;;;;4969872;28;20212;-75
2023/04/04 04:38:06;;;;;;;4.33;3.03;;;;;;;;;;4974513;28;20180;-75
2023/04/04 04:40:34;;;;;;;7.77;3.53;;;;;;;;;;4981474;28;20621;-75
2023/04/04 04:42:59;;;;;;;5.17;3.23;;;;;;;;;;4973971;28;20188;-75
2023/04/04 04:45:25;;;;;;;6.57;3.87;;;;;;;;;;4973861;28;20645;-75
2023/04/04 04:47:50;;;;;;;9.20;3.80;;;;;;;;;;4985164;28;20646;-75
2023/04/04 04:50:16;;;;;;;5.77;3.47;;;;;;;;;;4982744;28;20195;-74
2023/04/04 04:52:42;;;;;;;5.27;3.50;;;;;;;;;;4975670;28;20184;-75
2023/04/04 04:55:07;;;;;;;7.87;3.83;;;;;;;;;;4975280;28;20247;-75
2023/04/04 04:57:33;;;;;;;4.73;3.50;;;;;;;;;;4974192;28;20190;-75
2023/04/04 04:59:59;;;;;;;4.67;3.67;;;;;;;;;;4976184;28;20204;-74
2023/04/04 05:02:24;;;;;;;6.80;3.83;;;;;;;;;;4975559;28;20180;-75
2023/04/04 05:04:49;;;;;;;3.87;3.40;;;;;;;;;;4978012;28;20212;-75
2023/04/04 05:07:15;;;;;;;4.73;3.27;;;;;;;;;;4970316;28;20238;-74
2023/04/04 05:09:41;;;;;;;8.10;3.40;;;;;;;;;;4979774;28;20195;-75
2023/04/04 05:12:06;;;;;;;5.07;3.63;;;;;;;;;;4973084;28;20646;-75
2023/04/04 05:14:31;;;;;;;4.67;3.67;;;;;;;;;;4982845;28;20196;-75
2023/04/04 05:16:57;;;;;;;7.50;4.13;;;;;;;;;;4977588;28;20259;-75
2023/04/04 05:19:22;;;;;;;5.63;4.17;;;;;;;;;;4980864;28;20183;-75
2023/04/04 05:21:47;;;;;;;6.83;4.10;;;;;;;;;;4978641;28;20203;-75
2023/04/04 05:24:12;;;;;;;8.53;3.60;;;;;;;;;;4978156;28;20184;-75
2023/04/04 05:26:38;;;;;;;6.27;3.93;;;;;;;;;;4976697;28;20244;-74
2023/04/04 05:29:03;;;;;;;7.63;3.53;;;;;;;;;;4975447;28;20234;-75
2023/04/04 05:31:28;;;;;;;5.47;3.77;;;;;;;;;;4979101;28;20187;-74
2023/04/04 05:33:53;;;;;;;5.47;3.90;;;;;;;;;;4976463;28;20180;-75
2023/04/04 05:36:18;;;;;;;7.97;5.43;;;;;;;;;;4984505;28;20601;-75
2023/04/04 05:38:44;;;;;;;7.03;4.03;;;;;;;;;;4967364;28;20185;-75
2023/04/04 05:41:09;;;;;;;5.77;4.37;;;;;;;;;;4982344;28;20200;-75
2023/04/04 05:43:34;;;;;;;4.43;3.40;;;;;;;;;;4974545;28;20211;-77
2023/04/04 05:45:59;;;;;;;5.80;4.43;;;;;;;;;;4978675;28;20605;-77
2023/04/04 05:48:25;;;;;;;6.27;3.77;;;;;;;;;;4973693;28;20191;-74
2023/04/04 05:50:50;;;;;;;7.20;3.93;;;;;;;;;;4977751;28;20624;-76
2023/04/04 05:53:15;;;;;;;6.60;4.47;;;;;;;;;;4971585;28;20191;-76
2023/04/04 05:55:41;;;;;;;5.70;3.90;;;;;;;;;;4970762;28;20208;-75
2023/04/04 05:58:06;;;;;;;6.37;3.97;;;;;;;;;;4971475;28;20191;-75
2023/04/04 06:00:31;;;;;;;7.13;4.40;;;;;;;;;;4969044;28;20226;-75
2023/04/04 06:02:57;;;;;;;9.17;5.30;;;;;;;;;;4976358;28;20243;-75
2023/04/04 06:05:23;;;;;;;6.10;4.10;;;;;;;;;;4982762;28;20192;-75
2023/04/04 06:07:48;;;;;;;7.83;4.63;;;;;;;;;;4970187;28;20267;-75
2023/04/04 06:10:13;;;;;;;4.80;3.33;;;;;;;;;;4966209;28;20187;-74
2023/04/04 06:12:38;;;;;;;20.67;4.60;;;;;;;;;;4979586;28;20219;-75
2023/04/04 06:15:04;;;;;;;7.87;3.67;;;;;;;;;;4976135;28;20203;-75
2023/04/04 06:17:29;;;;;;;10.93;4.70;;;;;;;;;;4984332;28;20176;-75
2023/04/04 06:19:55;;;;;;;7.00;3.90;;;;;;;;;;4975658;28;20608;-75
2023/04/04 06:22:20;;;;;;;6.73;4.20;;;;;;;;;;4975552;28;20168;-75
2023/04/04 06:24:45;;;;;;;6.03;4.03;;;;;;;;;;4972449;28;20234;-75
2023/04/04 06:27:11;;;;;;;4.03;3.03;;;;;;;;;;4979568;28;20179;-74
2023/04/04 06:29:36;;;;;;;6.87;3.13;;;;;;;;;;4974521;28;20176;-75
2023/04/04 06:32:01;;;;;;;6.90;4.43;;;;;;;;;;4981505;28;20597;-75
2023/04/04 06:34:27;;;;;;;8.60;4.33;;;;;;;;;;4970343;28;20675;-76
2023/04/04 06:36:52;;;;;;;7.33;3.90;;;;;;;;;;4974670;28;20181;-75
2023/04/04 06:39:17;;;;;;;5.97;3.77;;;;;;;;;;4977585;28;20189;-75
2023/04/04 06:41:42;;;;;;;10.07;4.53;;;;;;;;;;4971083;28;20207;-75
2023/04/04 06:46:41;;;;;;;8.30;4.43;;;;;;;;;;4992193;28;20226;-68
2023/04/04 06:49:06;;;;;;;7.80;4.90;;;;;;;;;;4995243;28;20180;-69
2023/04/04 06:51:34;;;;;;;10.07;4.50;;;;;;;;;;4991992;28;20230;-69
2023/04/04 06:54:00;;;;;;;11.57;4.60;;;;;;;;;;4997651;28;20171;-69
2023/04/04 06:56:25;;;;;;;7.20;3.63;;;;;;;;;;4992793;28;20626;-68
2023/04/04 06:58:51;;;;;;;6.33;3.60;;;;;;;;;;4988026;28;20214;-69
2023/04/04 07:01:16;;;;;;;4.37;3.17;;;;;;;;;;4988546;28;20586;-68
2023/04/04 07:03:43;;;;;;;3.23;2.70;;;;;;;;;;4997912;28;20206;-69
2023/04/04 07:06:08;;;;;;;7.97;3.30;;;;;;;;;;4993689;28;20200;-68
2023/04/04 07:08:33;;;;;;;3.63;3.13;;;;;;;;;;4996875;28;20182;-68
2023/04/04 07:10:59;;;;;;;8.23;3.17;;;;;;;;;;4992928;28;20666;-68
2023/04/04 07:13:24;;;;;;;6.03;2.83;;;;;;;;;;4992509;28;20187;-68
2023/04/04 07:15:49;;;;;;;5.83;3.40;;;;;;;;;;4996779;28;20722;-69
2023/04/04 07:18:15;;;;;;;4.63;2.77;;;;;;;;;;4976248;28;20204;-69
2023/04/04 07:20:40;;;;;;;6.10;3.37;;;;;;;;;;4990368;28;20573;-68
2023/04/04 07:23:05;;;;;;;5.53;3.17;;;;;;;;;;4994934;28;20183;-69
2023/04/04 07:25:31;;;;;;;5.97;3.40;;;;;;;;;;4991221;28;20760;-69
2023/04/04 07:27:56;;;;;;;4.50;2.73;;;;;;;;;;4995280;28;20182;-68
2023/04/04 07:30:25;;;;;;;5.67;2.87;;;;;;;;;;4996564;28;20183;-68
2023/04/04 07:32:56;;;;;;;7.57;2.70;;;;;;;;;;4993510;28;20681;-69
2023/04/04 07:35:21;;;;;;;2.73;2.30;;;;;;;;;;4994893;28;20207;-68
2023/04/04 07:37:46;;;;;;;3.47;2.47;;;;;;;;;;4994255;28;20191;-68
2023/04/04 07:40:12;;;;;;;4.87;2.50;;;;;;;;;;4996102;28;20257;-68
2023/04/04 07:42:42;;;;;;;2.93;2.50;;;;;;;;;;4992088;28;20661;-68
2023/04/04 07:45:07;;;;;;;3.80;2.70;;;;;;;;;;4998745;28;20223;-68
2023/04/04 07:47:32;;;;;;;6.17;2.23;;;;;;;;;;4996039;28;20175;-68
2023/04/04 07:49:57;;;;;;;2.60;2.40;;;;;;;;;;4992707;28;20211;-68
2023/04/04 07:52:23;;;;;;;4.83;2.40;;;;;;;;;;4996552;28;20204;-68
2023/04/04 07:54:48;;;;;;;4.53;2.90;;;;;;;;;;4996755;28;20187;-68
2023/04/04 07:57:13;;;;;;;4.80;2.43;;;;;;;;;;4993516;28;20257;-68
2023/04/04 07:59:38;;;;;;;6.87;2.23;;;;;;;;;;4995301;28;20241;-68
2023/04/04 08:02:03;;;;;;;4.90;2.47;;;;;;;;;;4990576;28;20267;-68
2023/04/04 08:04:29;;;;;;;1.70;1.60;;;;;;;;;;4995319;28;20569;-68
2023/04/04 08:06:54;;;;;;;2.63;2.03;;;;;;;;;;4990087;28;20267;-68
2023/04/04 08:09:19;;;;;;;2.60;2.20;;;;;;;;;;4997460;28;20171;-68
2023/04/04 08:11:44;;;;;;;3.40;2.03;;;;;;;;;;4990851;28;20186;-68
2023/04/04 08:14:10;;;;;;;2.33;2.00;;;;;;;;;;4995653;28;20176;-69
2023/04/04 08:16:36;;;;;;;4.77;2.00;;;;;;;;;;4997188;28;20653;-68
2023/04/04 08:19:02;;;;;;;2.93;2.50;;;;;;;;;;4996031;28;20183;-69
2023/04/04 08:21:28;;;;;;;3.40;2.17;;;;;;;;;;4995669;28;20388;-69
2023/04/04 08:23:53;;;;;;;2.37;1.93;;;;;;;;;;4994686;28;20267;-69
2023/04/04 08:26:18;;;;;;;3.37;2.10;;;;;;;;;;4987557;28;20196;-68
2023/04/04 08:28:44;;;;;;;4.77;2.37;;;;;;;;;;4991480;28;20176;-68
2023/04/04 08:31:10;;;;;;;4.37;2.10;;;;;;;;;;4991899;28;20176;-68
2023/04/04 08:33:35;;;;;;;2.33;1.97;;;;;;;;;;5002827;28;20997;-69
2023/04/04 08:36:00;;;;;;;3.60;2.20;;;;;;;;;;4997789;28;20203;-67
2023/04/04 08:38:26;;;;;;;3.83;2.27;;;;;;;;;;4983231;28;20184;-69
2023/04/04 08:40:52;;;;;;;4.40;2.35;;;;;;;;;;4988319;28;20210;-67
2023/04/04 08:43:18;;;;;;;4.45;2.30;;;;;;;;;;4992366;28;20199;-68
2023/04/04 08:45:44;;;;;;;2.53;2.05;;;;;;;;;;4996070;28;20211;-67
2023/04/04 08:48:14;;;;;;;3.40;2.47;;;;;;;;;;4999222;28;20246;-67
2023/04/04 08:50:41;;;;;;;2.13;1.90;;;;;;;;;;4996878;28;20545;-68
2023/04/04 08:53:07;;;;;;;2.55;1.77;;;;;;;;;;4993529;28;20191;-68
2023/04/04 08:55:33;;;;;;;5.43;1.95;;;;;;;;;;5003578;28;20249;-67
2023/04/04 08:57:58;;;;;;;4.03;1.85;;;;;;;;;;4992234;28;20184;-67
2023/04/04 09:00:24;;;;;;;2.47;1.90;;;;;;;;;;4999076;28;20222;-67
2023/04/04 09:03:03;;;;;;;2.58;2.03;;;;;;;;;;4993982;28;20208;-67
2023/04/04 09:05:29;;;;;;;6.70;2.17;;;;;;;;;;5003158;28;20200;-67
2023/04/04 09:07:55;;;;;;;4.03;1.63;;;;;;;;;;4992172;28;20671;-67
2023/04/04 09:10:22;;;;;;;3.53;1.83;;;;;;;;;;4994462;28;20195;-67
2023/04/04 09:12:47;;;;;;;2.15;1.90;;;;;;;;;;4997494;28;20193;-67
2023/04/04 09:15:12;;;;;;;3.50;1.73;;;;;;;;;;4990541;28;20290;-68
2023/04/04 09:17:38;;;;;;;3.22;1.80;;;;;;;;;;5002961;28;20633;-67
2023/04/04 09:20:23;;;;;;;3.30;2.00;;;;;;;;;;4993405;28;20199;-67
2023/04/04 09:22:48;;;;;;;3.88;1.90;;;;;;;;;;4993461;28;20210;-67
2023/04/04 09:25:15;;;;;;;3.47;1.77;;;;;;;;;;4993031;28;20277;-67
2023/04/04 09:27:43;;;;;;;3.38;1.67;;;;;;;;;;4978943;28;20642;-67
2023/04/04 09:30:08;;;;;;;1.52;1.38;;;;;;;;;;4993879;28;20178;-69
2023/04/04 09:32:33;;;;;;;5.45;1.83;;;;;;;;;;5003976;28;20540;-69
2023/04/04 09:34:58;;;;;;;2.42;1.50;;;;;;;;;;5001253;28;20252;-67
2023/04/04 09:37:24;;;;;;;3.35;2.67;;;;;;;;;;5008434;28;20551;-67
2023/04/04 09:39:49;;;;;;;2.83;1.58;;;;;;;;;;5000197;28;20737;-67
2023/04/04 09:42:15;;;;;;;5.22;2.10;;;;;;;;;;5004264;28;20179;-67
2023/04/04 09:44:40;;;;;;;4.55;1.70;;;;;;;;;;4993247;28;20692;-67
2023/04/04 09:47:26;;;;;;;5.05;1.88;;;;;;;;;;4996878;28;20194;-67
2023/04/04 09:49:52;;;;;;;4.07;2.10;;;;;;;;;;4989132;28;20203;-68
2023/04/04 09:52:20;;;;;;;2.53;1.60;;;;;;;;;;4998816;28;20187;-68
2023/04/04 09:54:58;;;;;;;3.22;1.90;;;;;;;;;;4993839;28;20680;-68
2023/04/04 09:57:25;;;;;;;2.83;1.90;;;;;;;;;;5002131;28;20194;-68
2023/04/04 09:59:50;;;;;;;8.30;3.05;;;;;;;;;;4993898;28;20352;-68
2023/04/04 10:02:16;;;;;;;3.85;2.20;;;;;;;;;;4992491;28;20183;-68
2023/04/04 10:04:41;;;;;;;2.55;1.70;;;;;;;;;;4993364;28;20195;-68
2023/04/04 10:07:12;;;;;;;3.42;1.70;;;;;;;;;;4999978;28;20180;-69
2023/04/04 10:09:37;;;;;;;3.63;2.28;;;;;;;;;;4992490;28;20257;-68
2023/04/04 10:12:09;;;;;;;3.95;2.10;;;;;;;;;;4998011;28;20656;-68
2023/04/04 10:14:35;;;;;;;4.18;2.45;;;;;;;;;;5000871;28;20222;-68
2023/04/04 10:17:05;;;;;;;3.92;1.90;;;;;;;;;;4999655;28;20616;-68
2023/04/04 10:19:30;;;;;;;5.93;2.03;;;;;;;;;;4998257;28;20178;-68
2023/04/04 10:21:56;;;;;;;2.83;2.05;;;;;;;;;;4996447;28;20281;-68
2023/04/04 10:24:21;;;;;;;3.50;2.05;;;;;;;;;;4997992;28;20180;-68
2023/04/04 10:26:46;;;;;;;6.13;2.08;;;;;;;;;;4995435;28;20254;-68
2023/04/04 10:29:11;;;;;;;3.05;2.03;;;;;;;;;;4997805;28;20183;-68
2023/04/04 10:31:40;;;;;;;6.75;2.70;;;;;;;;;;4998290;28;20187;-68
2023/04/04 10:34:20;;;;;;;4.35;2.10;;;;;;;;;;4999544;28;20246;-68
2023/04/04 10:36:50;;;;;;;4.38;1.90;;;;;;;;;;4985349;28;20245;-68
2023/04/04 10:39:26;;;;;;;3.10;1.77;;;;;;;;;;4987294;28;20187;-68
2023/04/04 10:41:51;;;;;;;4.18;1.85;;;;;;;;;;4988896;28;20187;-68
2023/04/04 10:44:17;;;;;;;2.35;1.60;;;;;;;;;;4993994;28;20238;-68
2023/04/04 10:46:45;;;;;;;3.50;1.45;;;;;;;;;;4992778;28;20183;-68
2023/04/04 10:49:10;;;;;;;2.75;1.88;;;;;;;;;;4994488;28;20609;-68
2023/04/04 10:51:36;;;;;;;3.90;1.80;;;;;;;;;;5000242;28;20234;-68
2023/04/04 10:54:01;;;;;;;4.28;1.58;;;;;;;;;;4989129;28;20179;-68
2023/04/04 10:56:27;;;;;;;3.65;1.67;;;;;;;;;;4995077;28;20207;-67
2023/04/04 10:59:07;;;;;;;1.38;1.25;;;;;;;;;;4999203;28;20182;-67
2023/04/04 11:01:46;;;;;;;4.18;1.88;;;;;;;;;;4991424;28;20238;-68
2023/04/04 11:04:15;;;;;;;2.58;1.73;;;;;;;;;;4991948;28;20207;-67
2023/04/04 11:06:59;;;;;;;4.70;2.47;;;;;;;;;;4994324;28;20171;-68
2023/04/04 11:09:43;;;;;;;3.17;2.13;;;;;;;;;;4992854;28;20242;-68
2023/04/04 11:12:09;;;;;;;5.03;2.63;;;;;;;;;;4991630;28;20179;-68
2023/04/04 11:14:35;;;;;;;2.67;1.55;;;;;;;;;;4992451;28;20191;-68
2023/04/04 11:17:04;;;;;;;5.38;1.83;;;;;;;;;;4988966;28;20185;-68
2023/04/04 11:19:30;;;;;;;3.17;2.10;;;;;;;;;;4992015;28;20179;-68
2023/04/04 11:21:56;;;;;;;3.22;2.13;;;;;;;;;;4987023;28;20183;-68
2023/04/04 11:24:22;;;;;;;4.50;2.00;;;;;;;;;;4996021;28;20260;-68
2023/04/04 11:26:47;;;;;;;3.55;2.10;;;;;;;;;;4990786;28;20219;-68
2023/04/04 11:29:19;;;;;;;4.43;2.25;;;;;;;;;;4991684;28;20179;-68
2023/04/04 11:31:44;;;;;;;3.65;2.00;;;;;;;;;;4997706;28;20270;-68
2023/04/04 11:34:10;;;;;;;3.47;2.22;;;;;;;;;;4994129;28;20263;-68
2023/04/04 11:36:35;;;;;;;3.40;2.28;;;;;;;;;;4994022;28;20176;-68
2023/04/04 11:39:05;;;;;;;4.03;2.25;;;;;;;;;;4992824;28;20190;-68
2023/04/04 11:41:50;;;;;;;4.10;2.15;;;;;;;;;;4995035;28;20210;-68
2023/04/04 11:44:16;;;;;;;5.68;2.45;;;;;;;;;;4996105;28;20227;-68
2023/04/04 11:46:42;;;;;;;2.72;2.10;;;;;;;;;;4995940;28;20591;-68
2023/04/04 11:49:08;;;;;;;3.72;1.85;;;;;;;;;;4990090;28;20176;-68
2023/04/04 11:51:35;;;;;;;4.07;2.28;;;;;;;;;;4988707;28;20184;-68
2023/04/04 11:54:00;;;;;;;3.05;2.15;;;;;;;;;;4987858;28;20263;-68
2023/04/04 11:56:26;;;;;;;9.32;2.00;;;;;;;;;;4994043;28;20659;-68
2023/04/04 11:58:51;;;;;;;4.05;2.05;;;;;;;;;;5000978;28;20265;-68
2023/04/04 12:01:17;;;;;;;7.35;2.45;;;;;;;;;;4996055;28;20195;-68
2023/04/04 12:03:42;;;;;;;3.47;2.05;;;;;;;;;;4996301;28;20175;-68
2023/04/04 12:06:09;;;;;;;5.03;2.38;;;;;;;;;;4998352;28;20195;-68
2023/04/04 12:08:35;;;;;;;3.42;2.20;;;;;;;;;;4995875;28;20175;-68
2023/04/04 12:11:05;;;;;;;3.25;2.10;;;;;;;;;;4991717;28;20179;-68
2023/04/04 12:13:30;;;;;;;4.00;2.65;;;;;;;;;;4996202;28;20179;-68
2023/04/04 12:15:55;;;;;;;3.20;1.88;;;;;;;;;;4992536;28;20199;-68
2023/04/04 12:18:21;;;;;;;3.40;1.85;;;;;;;;;;4997710;28;20619;-68
2023/04/04 12:20:46;;;;;;;3.92;2.10;;;;;;;;;;4993606;28;20677;-68
2023/04/04 12:23:12;;;;;;;3.08;1.90;;;;;;;;;;4998828;28;20203;-68
2023/04/04 12:25:38;;;;;;;4.57;2.60;;;;;;;;;;4994227;28;20202;-68
2023/04/04 12:28:05;;;;;;;6.07;2.60;;;;;;;;;;4999017;28;20198;-68
2023/04/04 12:30:31;;;;;;;4.38;2.25;;;;;;;;;;4998232;28;20214;-68
2023/04/04 12:32:56;;;;;;;3.17;2.30;;;;;;;;;;4993818;28;20179;-67
2023/04/04 12:35:22;;;;;;;3.80;2.13;;;;;;;;;;4988341;28;20203;-67
2023/04/04 12:37:57;;;;;;;3.83;2.35;;;;;;;;;;4992528;28;20206;-68
2023/04/04 12:40:23;;;;;;;3.17;2.05;;;;;;;;;;4999736;28;20180;-67
2023/04/04 12:42:48;;;;;;;3.33;2.58;;;;;;;;;;4994235;28;20310;-67
2023/04/04 12:45:13;;;;;;;3.58;2.50;;;;;;;;;;5013566;23;20713;-76
2023/04/04 12:47:50;;;;;;;2.72;2.20;;;;;;;;;;4993810;28;20172;-77
2023/04/04 12:50:20;;;;;;;3.35;2.22;;;;;;;;;;4994733;28;20242;-77
2023/04/04 12:52:50;;;;;;;3.45;2.35;;;;;;;;;;5000684;28;20553;-77
2023/04/04 12:55:19;;;;;;;8.27;2.15;;;;;;;;;;5011039;28;20677;-76
2023/04/04 12:57:44;;;;;;;3.75;2.05;;;;;;;;;;5008771;28;20190;-76
2023/04/04 13:00:12;;;;;;;7.45;2.83;;;;;;;;;;4993401;28;20180;-77
2023/04/04 13:02:38;;;;;;;5.57;2.20;;;;;;;;;;4995323;28;20195;-74
2023/04/04 13:05:05;;;;;;;3.40;2.00;;;;;;;;;;4997336;28;20268;-77
2023/04/04 13:07:33;;;;;;;5.28;2.22;;;;;;;;;;4995673;28;20329;-77
2023/04/04 13:10:03;;;;;;;3.53;2.38;;;;;;;;;;4996803;28;20282;-77
2023/04/04 13:12:48;;;;;;;5.93;2.35;;;;;;;;;;4995786;28;20187;-75
2023/04/04 13:15:14;;;;;;;5.10;3.42;;;;;;;;;;4981541;28;20218;-75
2023/04/04 13:17:39;;;;;;;3.50;2.13;;;;;;;;;;4995501;28;20180;-77
2023/04/04 13:20:04;;;;;;;3.90;2.40;;;;;;;;;;4997576;28;20261;-75
2023/04/04 13:22:34;;;;;;;3.85;2.65;;;;;;;;;;4993482;28;20929;-76
2023/04/04 13:24:59;;;;;;;4.82;2.45;;;;;;;;;;5007323;28;20630;-76
2023/04/04 13:27:27;;;;;;;4.60;2.22;;;;;;;;;;4994526;28;20184;-76
2023/04/04 13:29:52;;;;;;;3.50;2.35;;;;;;;;;;4988615;28;20200;-76
2023/04/04 13:32:17;;;;;;;2.63;2.43;;;;;;;;;;4992139;28;20186;-76
2023/04/04 13:34:42;;;;;;;3.95;2.50;;;;;;;;;;4998352;28;20463;-76
2023/04/04 13:37:08;;;;;;;6.00;2.40;;;;;;;;;;4999696;28;20187;-75
2023/04/04 13:39:33;;;;;;;6.90;3.40;;;;;;;;;;4991360;28;20619;-76
2023/04/04 13:41:58;;;;;;;3.80;2.60;;;;;;;;;;4992190;28;20250;-75
2023/04/04 13:44:23;;;;;;;3.23;2.47;;;;;;;;;;4993574;28;20938;-76
2023/04/04 13:46:48;;;;;;;2.72;1.95;;;;;;;;;;4991830;28;20453;-76
2023/04/04 13:49:14;;;;;;;4.30;2.10;;;;;;;;;;4993078;28;20187;-75
2023/04/04 13:51:39;;;;;;;4.60;2.28;;;;;;;;;;4991925;28;20203;-76
2023/04/04 13:54:04;;;;;;;3.05;2.08;;;;;;;;;;4989139;28;20176;-75
2023/04/04 13:56:29;;;;;;;4.55;3.20;;;;;;;;;;4993202;28;20739;-75
2023/04/04 13:58:55;;;;;;;3.45;2.10;;;;;;;;;;4991674;28;20266;-76
2023/04/04 14:01:20;;;;;;;6.97;2.58;;;;;;;;;;4992436;28;20180;-76
2023/04/04 14:03:46;;;;;;;3.90;2.10;;;;;;;;;;4994835;28;20206;-76
2023/04/04 14:06:11;;;;;;;3.40;2.38;;;;;;;;;;4991833;28;20200;-76
2023/04/04 14:08:37;;;;;;;3.20;2.20;;;;;;;;;;4991654;28;20179;-76
2023/04/04 14:11:02;;;;;;;4.85;2.30;;;;;;;;;;4988987;28;20237;-76
2023/04/04 14:13:28;;;;;;;2.95;2.15;;;;;;;;;;5008160;28;20178;-76
2023/04/04 14:15:53;;;;;;;3.33;2.00;;;;;;;;;;4992078;28;20287;-76
2023/04/04 14:18:19;;;;;;;3.42;2.60;;;;;;;;;;5004333;28;20262;-76
2023/04/04 14:20:44;;;;;;;6.00;2.75;;;;;;;;;;5003187;28;20254;-76
2023/04/04 14:23:09;;;;;;;4.85;2.47;;;;;;;;;;5002281;28;20180;-76
2023/04/04 14:25:35;;;;;;;4.82;3.00;;;;;;;;;;4991057;28;20204;-75
2023/04/04 14:28:00;;;;;;;3.80;2.65;;;;;;;;;;4993359;28;20179;-75
2023/04/04 14:30:25;;;;;;;3.95;2.47;;;;;;;;;;4997377;28;20208;-76
2023/04/04 14:32:50;;;;;;;5.45;2.70;;;;;;;;;;4992418;28;20625;-75
2023/04/04 14:35:16;;;;;;;3.33;2.22;;;;;;;;;;4989057;28;20281;-75
2023/04/04 14:37:41;;;;;;;4.70;2.50;;;;;;;;;;4992176;28;20251;-76
2023/04/04 14:40:07;;;;;;;4.20;2.30;;;;;;;;;;4993073;28;20540;-76